Stavropol', Russia

4:56 PM MSK on August 29, 2015 (GMT +0300)
Shpakovskoye | | Change Station
CLOSE
Current Station
Airport
Location: Stavropol',
Elevation: 1483 ft
Nearby Weather Stations

Elev 1483 ft 45.12 °N, 42.08 °E | Updated 26 minutes ago

Clear
Clear
86 °F
Feels Like 86 °F
N
4
Wind Variable Wind from South

Today
High -- | Low -- °F
--% Chance of Precip.
Yesterday
High -- | Low -- °F
Precip. -- in
5:29 AM 6:55 PM
Full, 100% visible
Pressure 30.09 in
Visibility -9999.0 miles
Clouds
Dew Point 32 °F
Humidity 14%
Rainfall 0.00 in
Snow Depth Not available.
UV Not available.
Pollen Not available.
Air Quality Not available.
Flu Activity Not available.
METAR URMT 291330Z 17002MPS 100V210 CAVOK 30/M00 Q1019 R07/010070 NOSIG RMK QFE724
Pressure 30.09 in
Visibility -9999.0 miles
Clouds
Dew Point 32 °F
Humidity 14%
Rainfall 0.00 in
Snow Depth Not available.
UV Not available.
Pollen Not available.
Air Quality Not available.
Flu Activity Not available.
METAR URMT 291330Z 17002MPS 100V210 CAVOK 30/M00 Q1019 R07/010070 NOSIG RMK QFE724

10-Day Weather Forecast

×

Almanac

Astronomy

Aug. 29, 2015 Rise Set
Actual Time
Civil Twilight
Nautical Twilight
Astronomical Twilight
Moon
Length of Visible Light
Length of Day
Tomorrow will be .
, % of the Moon is Illuminated

Today's Extremes

Country Highs Country Lows

Community

WunderPhotos

Upload Photos

1,850,686 photos uploaded!

WunderBlogs® & News

Nearby

Air Quality

  Air Quality AQ Index Pollutant
Not available.

Snow Depth

Station Depth Elevation

Earthquake Activity

City Distance Mag. Time & Date
Minimum magnitude displayed is 2.5.

Coastal Water Temperatures

Place Temperature

Stations

Nearby Weather Stations

Station Location Temp. Windchill Dew Point Humidity Wind Precip. Elev Updated Type